sensor_id;sensor_type;location;lat;lon;timestamp;P1;durP1;ratioP1;P2;durP2;ratioP2
27899;SDS011;15243;50.726;7.080;2023-04-24T00:02:00;0.98;;;0.60;;
27899;SDS011;15243;50.726;7.080;2023-04-24T00:04:27;0.60;;;0.50;;
27899;SDS011;15243;50.726;7.080;2023-04-24T00:06:54;3.35;;;0.70;;
27899;SDS011;15243;50.726;7.080;2023-04-24T00:09:23;0.98;;;0.70;;
27899;SDS011;15243;50.726;7.080;2023-04-24T00:11:51;1.80;;;0.50;;
27899;SDS011;15243;50.726;7.080;2023-04-24T00:14:19;2.30;;;0.60;;
27899;SDS011;15243;50.726;7.080;2023-04-24T00:16:46;0.88;;;0.55;;
27899;SDS011;15243;50.726;7.080;2023-04-24T00:19:13;1.35;;;0.65;;
27899;SDS011;15243;50.726;7.080;2023-04-24T00:21:41;1.27;;;0.50;;
27899;SDS011;15243;50.726;7.080;2023-04-24T00:24:08;2.05;;;0.55;;
27899;SDS011;15243;50.726;7.080;2023-04-24T00:26:35;0.55;;;0.52;;
27899;SDS011;15243;50.726;7.080;2023-04-24T00:29:02;0.40;;;0.40;;
27899;SDS011;15243;50.726;7.080;2023-04-24T00:31:29;0.47;;;0.45;;
27899;SDS011;15243;50.726;7.080;2023-04-24T00:33:56;0.65;;;0.50;;
27899;SDS011;15243;50.726;7.080;2023-04-24T00:36:23;2.30;;;0.85;;
27899;SDS011;15243;50.726;7.080;2023-04-24T00:38:51;2.15;;;0.60;;
27899;SDS011;15243;50.726;7.080;2023-04-24T00:41:19;0.68;;;0.50;;
27899;SDS011;15243;50.726;7.080;2023-04-24T00:43:48;2.30;;;0.50;;
27899;SDS011;15243;50.726;7.080;2023-04-24T00:46:15;0.85;;;0.40;;
27899;SDS011;15243;50.726;7.080;2023-04-24T00:48:43;2.10;;;0.55;;
27899;SDS011;15243;50.726;7.080;2023-04-24T00:51:10;0.77;;;0.43;;
27899;SDS011;15243;50.726;7.080;2023-04-24T00:53:37;0.50;;;0.40;;
27899;SDS011;15243;50.726;7.080;2023-04-24T00:56:04;2.40;;;0.60;;
27899;SDS011;15243;50.726;7.080;2023-04-24T00:58:32;1.95;;;0.47;;
27899;SDS011;15243;50.726;7.080;2023-04-24T01:00:59;3.70;;;0.50;;
27899;SDS011;15243;50.726;7.080;2023-04-24T01:03:28;0.70;;;0.63;;
27899;SDS011;15243;50.726;7.080;2023-04-24T01:05:58;4.30;;;0.95;;
27899;SDS011;15243;50.726;7.080;2023-04-24T01:08:26;0.90;;;0.50;;
27899;SDS011;15243;50.726;7.080;2023-04-24T01:10:55;0.50;;;0.35;;
27899;SDS011;15243;50.726;7.080;2023-04-24T01:13:24;0.80;;;0.38;;
27899;SDS011;15243;50.726;7.080;2023-04-24T01:15:50;1.17;;;0.40;;
27899;SDS011;15243;50.726;7.080;2023-04-24T01:18:17;3.42;;;0.80;;
27899;SDS011;15243;50.726;7.080;2023-04-24T01:20:44;0.50;;;0.50;;
27899;SDS011;15243;50.726;7.080;2023-04-24T01:23:12;0.77;;;0.70;;
27899;SDS011;15243;50.726;7.080;2023-04-24T01:25:40;0.95;;;0.80;;
27899;SDS011;15243;50.726;7.080;2023-04-24T01:28:07;3.85;;;1.08;;
27899;SDS011;15243;50.726;7.080;2023-04-24T01:30:34;2.75;;;1.00;;
27899;SDS011;15243;50.726;7.080;2023-04-24T01:33:02;4.13;;;1.25;;
27899;SDS011;15243;50.726;7.080;2023-04-24T01:35:29;3.22;;;1.60;;
27899;SDS011;15243;50.726;7.080;2023-04-24T01:37:56;1.75;;;1.17;;
27899;SDS011;15243;50.726;7.080;2023-04-24T01:40:23;3.63;;;1.20;;
27899;SDS011;15243;50.726;7.080;2023-04-24T01:42:50;2.55;;;1.40;;
27899;SDS011;15243;50.726;7.080;2023-04-24T01:45:18;2.45;;;1.40;;
27899;SDS011;15243;50.726;7.080;2023-04-24T01:47:45;2.78;;;1.38;;
27899;SDS011;15243;50.726;7.080;2023-04-24T01:50:13;5.00;;;1.52;;
27899;SDS011;15243;50.726;7.080;2023-04-24T01:52:40;2.30;;;1.30;;
27899;SDS011;15243;50.726;7.080;2023-04-24T01:55:10;2.08;;;1.48;;
27899;SDS011;15243;50.726;7.080;2023-04-24T01:57:37;3.50;;;1.45;;
27899;SDS011;15243;50.726;7.080;2023-04-24T02:00:04;4.20;;;1.50;;
27899;SDS011;15243;50.726;7.080;2023-04-24T02:02:33;6.30;;;1.90;;
27899;SDS011;15243;50.726;7.080;2023-04-24T02:05:01;2.38;;;1.42;;
27899;SDS011;15243;50.726;7.080;2023-04-24T02:07:29;2.15;;;1.40;;
27899;SDS011;15243;50.726;7.080;2023-04-24T02:09:55;5.55;;;1.80;;
27899;SDS011;15243;50.726;7.080;2023-04-24T02:12:22;3.47;;;2.20;;
27899;SDS011;15243;50.726;7.080;2023-04-24T02:14:49;3.65;;;2.42;;
27899;SDS011;15243;50.726;7.080;2023-04-24T02:17:17;3.67;;;3.28;;
27899;SDS011;15243;50.726;7.080;2023-04-24T02:19:45;4.95;;;2.78;;
27899;SDS011;15243;50.726;7.080;2023-04-24T02:22:12;4.95;;;3.05;;
27899;SDS011;15243;50.726;7.080;2023-04-24T02:24:39;4.10;;;2.78;;
27899;SDS011;15243;50.726;7.080;2023-04-24T02:27:06;5.63;;;3.50;;
27899;SDS011;15243;50.726;7.080;2023-04-24T02:29:33;5.05;;;3.40;;
27899;SDS011;15243;50.726;7.080;2023-04-24T02:32:00;5.55;;;3.45;;
27899;SDS011;15243;50.726;7.080;2023-04-24T02:34:27;3.85;;;3.53;;
27899;SDS011;15243;50.726;7.080;2023-04-24T02:36:54;6.13;;;3.35;;
27899;SDS011;15243;50.726;7.080;2023-04-24T02:39:21;6.70;;;3.60;;
27899;SDS011;15243;50.726;7.080;2023-04-24T02:41:48;5.70;;;3.08;;
27899;SDS011;15243;50.726;7.080;2023-04-24T02:44:15;6.55;;;3.80;;
27899;SDS011;15243;50.726;7.080;2023-04-24T02:46:43;5.72;;;3.20;;
27899;SDS011;15243;50.726;7.080;2023-04-24T02:49:10;6.13;;;3.78;;
27899;SDS011;15243;50.726;7.080;2023-04-24T02:51:38;5.65;;;4.13;;
27899;SDS011;15243;50.726;7.080;2023-04-24T02:54:08;5.97;;;4.13;;
27899;SDS011;15243;50.726;7.080;2023-04-24T02:56:36;6.07;;;4.45;;
27899;SDS011;15243;50.726;7.080;2023-04-24T02:59:03;5.05;;;3.90;;
27899;SDS011;15243;50.726;7.080;2023-04-24T03:01:30;5.75;;;4.47;;
27899;SDS011;15243;50.726;7.080;2023-04-24T03:03:57;9.75;;;5.35;;
27899;SDS011;15243;50.726;7.080;2023-04-24T03:06:24;7.63;;;4.72;;
27899;SDS011;15243;50.726;7.080;2023-04-24T03:08:53;6.47;;;4.97;;
27899;SDS011;15243;50.726;7.080;2023-04-24T03:11:20;6.80;;;4.95;;
27899;SDS011;15243;50.726;7.080;2023-04-24T03:13:47;7.68;;;5.57;;
27899;SDS011;15243;50.726;7.080;2023-04-24T03:16:15;8.82;;;5.95;;
27899;SDS011;15243;50.726;7.080;2023-04-24T03:18:42;7.15;;;5.70;;
27899;SDS011;15243;50.726;7.080;2023-04-24T03:21:09;9.60;;;5.85;;
27899;SDS011;15243;50.726;7.080;2023-04-24T03:23:36;7.63;;;5.43;;
27899;SDS011;15243;50.726;7.080;2023-04-24T03:26:03;7.82;;;5.20;;
27899;SDS011;15243;50.726;7.080;2023-04-24T03:28:30;8.80;;;5.80;;
27899;SDS011;15243;50.726;7.080;2023-04-24T03:30:56;8.98;;;5.55;;
27899;SDS011;15243;50.726;7.080;2023-04-24T03:33:24;10.20;;;5.88;;
27899;SDS011;15243;50.726;7.080;2023-04-24T03:35:51;9.70;;;5.70;;
27899;SDS011;15243;50.726;7.080;2023-04-24T03:38:18;7.18;;;5.40;;
27899;SDS011;15243;50.726;7.080;2023-04-24T03:40:46;8.13;;;5.50;;
27899;SDS011;15243;50.726;7.080;2023-04-24T03:43:13;9.65;;;6.32;;
27899;SDS011;15243;50.726;7.080;2023-04-24T03:45:40;9.55;;;6.03;;
27899;SDS011;15243;50.726;7.080;2023-04-24T03:48:07;9.50;;;5.43;;
27899;SDS011;15243;50.726;7.080;2023-04-24T03:50:34;7.60;;;5.43;;
27899;SDS011;15243;50.726;7.080;2023-04-24T03:53:01;10.48;;;5.20;;
27899;SDS011;15243;50.726;7.080;2023-04-24T03:55:28;9.27;;;5.45;;
27899;SDS011;15243;50.726;7.080;2023-04-24T03:57:55;8.55;;;5.30;;
27899;SDS011;15243;50.726;7.080;2023-04-24T04:00:22;10.75;;;5.22;;
27899;SDS011;15243;50.726;7.080;2023-04-24T04:02:49;7.22;;;5.30;;
27899;SDS011;15243;50.726;7.080;2023-04-24T04:05:16;8.15;;;5.07;;
27899;SDS011;15243;50.726;7.080;2023-04-24T04:07:43;8.48;;;5.45;;
27899;SDS011;15243;50.726;7.080;2023-04-24T04:10:10;9.32;;;5.43;;
27899;SDS011;15243;50.726;7.080;2023-04-24T04:12:37;10.77;;;6.15;;
27899;SDS011;15243;50.726;7.080;2023-04-24T04:15:06;8.35;;;5.82;;
27899;SDS011;15243;50.726;7.080;2023-04-24T04:17:33;7.40;;;5.53;;
27899;SDS011;15243;50.726;7.080;2023-04-24T04:20:01;8.07;;;5.60;;
27899;SDS011;15243;50.726;7.080;2023-04-24T04:22:28;7.40;;;5.68;;
27899;SDS011;15243;50.726;7.080;2023-04-24T04:24:55;13.55;;;5.75;;
27899;SDS011;15243;50.726;7.080;2023-04-24T04:27:22;8.63;;;5.03;;
27899;SDS011;15243;50.726;7.080;2023-04-24T04:29:50;11.10;;;6.25;;
27899;SDS011;15243;50.726;7.080;2023-04-24T04:32:17;8.82;;;5.82;;
27899;SDS011;15243;50.726;7.080;2023-04-24T04:34:44;9.68;;;6.05;;
27899;SDS011;15243;50.726;7.080;2023-04-24T04:37:11;8.63;;;5.90;;
27899;SDS011;15243;50.726;7.080;2023-04-24T04:39:39;7.57;;;5.70;;
27899;SDS011;15243;50.726;7.080;2023-04-24T04:42:06;9.57;;;5.95;;
27899;SDS011;15243;50.726;7.080;2023-04-24T04:44:33;7.80;;;5.40;;
27899;SDS011;15243;50.726;7.080;2023-04-24T04:47:02;11.52;;;6.55;;
27899;SDS011;15243;50.726;7.080;2023-04-24T04:49:32;8.50;;;5.45;;
27899;SDS011;15243;50.726;7.080;2023-04-24T04:51:58;7.95;;;6.05;;
27899;SDS011;15243;50.726;7.080;2023-04-24T04:54:25;8.65;;;6.05;;
27899;SDS011;15243;50.726;7.080;2023-04-24T04:56:52;9.98;;;6.07;;
27899;SDS011;15243;50.726;7.080;2023-04-24T04:59:19;9.68;;;5.78;;
27899;SDS011;15243;50.726;7.080;2023-04-24T05:01:46;10.10;;;5.70;;
27899;SDS011;15243;50.726;7.080;2023-04-24T05:04:13;9.95;;;5.53;;
27899;SDS011;15243;50.726;7.080;2023-04-24T05:06:41;9.80;;;5.90;;
27899;SDS011;15243;50.726;7.080;2023-04-24T05:09:08;9.95;;;6.03;;
27899;SDS011;15243;50.726;7.080;2023-04-24T05:11:36;9.30;;;5.80;;
27899;SDS011;15243;50.726;7.080;2023-04-24T05:14:03;9.98;;;5.95;;
27899;SDS011;15243;50.726;7.080;2023-04-24T05:16:31;10.18;;;5.93;;
27899;SDS011;15243;50.726;7.080;2023-04-24T05:18:58;8.25;;;5.72;;
27899;SDS011;15243;50.726;7.080;2023-04-24T05:21:25;8.63;;;5.80;;
27899;SDS011;15243;50.726;7.080;2023-04-24T05:23:52;8.63;;;5.50;;
27899;SDS011;15243;50.726;7.080;2023-04-24T05:26:22;10.85;;;5.88;;
27899;SDS011;15243;50.726;7.080;2023-04-24T05:28:49;8.73;;;5.15;;
27899;SDS011;15243;50.726;7.080;2023-04-24T05:31:17;11.25;;;6.15;;
27899;SDS011;15243;50.726;7.080;2023-04-24T05:33:46;10.32;;;5.78;;
27899;SDS011;15243;50.726;7.080;2023-04-24T05:36:13;8.52;;;5.00;;
27899;SDS011;15243;50.726;7.080;2023-04-24T05:38:41;8.38;;;5.30;;
27899;SDS011;15243;50.726;7.080;2023-04-24T05:41:08;8.02;;;5.22;;
27899;SDS011;15243;50.726;7.080;2023-04-24T05:43:35;8.80;;;5.43;;
27899;SDS011;15243;50.726;7.080;2023-04-24T05:46:02;8.77;;;5.00;;
27899;SDS011;15243;50.726;7.080;2023-04-24T05:48:29;9.75;;;5.43;;
27899;SDS011;15243;50.726;7.080;2023-04-24T05:50:57;8.80;;;5.60;;
27899;SDS011;15243;50.726;7.080;2023-04-24T05:53:24;7.38;;;5.25;;
27899;SDS011;15243;50.726;7.080;2023-04-24T05:55:55;11.50;;;5.70;;
27899;SDS011;15243;50.726;7.080;2023-04-24T05:58:22;7.78;;;5.68;;
27899;SDS011;15243;50.726;7.080;2023-04-24T06:00:49;6.65;;;5.10;;
27899;SDS011;15243;50.726;7.080;2023-04-24T06:03:16;7.88;;;5.53;;
27899;SDS011;15243;50.726;7.080;2023-04-24T06:05:43;11.20;;;5.78;;
27899;SDS011;15243;50.726;7.080;2023-04-24T06:08:10;11.80;;;5.85;;
27899;SDS011;15243;50.726;7.080;2023-04-24T06:10:37;8.32;;;6.13;;
27899;SDS011;15243;50.726;7.080;2023-04-24T06:13:04;8.80;;;5.70;;
27899;SDS011;15243;50.726;7.080;2023-04-24T06:15:31;9.77;;;5.68;;
27899;SDS011;15243;50.726;7.080;2023-04-24T06:17:58;9.60;;;5.63;;
27899;SDS011;15243;50.726;7.080;2023-04-24T06:20:25;8.55;;;5.63;;
27899;SDS011;15243;50.726;7.080;2023-04-24T06:22:53;7.85;;;5.85;;
27899;SDS011;15243;50.726;7.080;2023-04-24T06:25:20;8.02;;;5.50;;
27899;SDS011;15243;50.726;7.080;2023-04-24T06:27:47;10.27;;;5.50;;
27899;SDS011;15243;50.726;7.080;2023-04-24T06:30:14;12.00;;;6.10;;
27899;SDS011;15243;50.726;7.080;2023-04-24T06:32:41;9.20;;;5.97;;
27899;SDS011;15243;50.726;7.080;2023-04-24T06:35:08;8.70;;;5.32;;
27899;SDS011;15243;50.726;7.080;2023-04-24T06:37:36;7.97;;;5.53;;
27899;SDS011;15243;50.726;7.080;2023-04-24T06:40:03;7.70;;;5.13;;
27899;SDS011;15243;50.726;7.080;2023-04-24T06:42:34;7.28;;;4.57;;
27899;SDS011;15243;50.726;7.080;2023-04-24T06:45:01;5.32;;;4.53;;
27899;SDS011;15243;50.726;7.080;2023-04-24T06:47:30;8.38;;;5.00;;
27899;SDS011;15243;50.726;7.080;2023-04-24T06:49:57;6.97;;;5.03;;
27899;SDS011;15243;50.726;7.080;2023-04-24T06:52:24;7.72;;;5.07;;
27899;SDS011;15243;50.726;7.080;2023-04-24T06:54:52;6.85;;;4.70;;
27899;SDS011;15243;50.726;7.080;2023-04-24T06:57:19;5.68;;;4.55;;
27899;SDS011;15243;50.726;7.080;2023-04-24T06:59:46;10.18;;;5.07;;
27899;SDS011;15243;50.726;7.080;2023-04-24T07:02:16;5.80;;;4.57;;
27899;SDS011;15243;50.726;7.080;2023-04-24T07:04:43;7.28;;;4.75;;
27899;SDS011;15243;50.726;7.080;2023-04-24T07:07:11;5.47;;;4.10;;
27899;SDS011;15243;50.726;7.080;2023-04-24T07:09:40;5.25;;;3.85;;
27899;SDS011;15243;50.726;7.080;2023-04-24T07:12:09;5.10;;;3.83;;
27899;SDS011;15243;50.726;7.080;2023-04-24T07:14:39;6.70;;;4.28;;
27899;SDS011;15243;50.726;7.080;2023-04-24T07:17:06;4.53;;;3.67;;
27899;SDS011;15243;50.726;7.080;2023-04-24T07:19:33;3.80;;;3.05;;
27899;SDS011;15243;50.726;7.080;2023-04-24T07:22:03;4.18;;;2.90;;
27899;SDS011;15243;50.726;7.080;2023-04-24T07:24:30;5.00;;;2.67;;
27899;SDS011;15243;50.726;7.080;2023-04-24T07:26:58;4.85;;;3.30;;
27899;SDS011;15243;50.726;7.080;2023-04-24T07:29:27;3.30;;;2.50;;
27899;SDS011;15243;50.726;7.080;2023-04-24T07:31:54;4.18;;;3.00;;
27899;SDS011;15243;50.726;7.080;2023-04-24T07:34:23;2.95;;;2.30;;
27899;SDS011;15243;50.726;7.080;2023-04-24T07:36:50;3.85;;;2.60;;
27899;SDS011;15243;50.726;7.080;2023-04-24T07:39:17;2.78;;;2.10;;
27899;SDS011;15243;50.726;7.080;2023-04-24T07:41:45;3.75;;;2.15;;
27899;SDS011;15243;50.726;7.080;2023-04-24T07:44:12;2.35;;;1.80;;
27899;SDS011;15243;50.726;7.080;2023-04-24T07:46:39;3.50;;;2.13;;
27899;SDS011;15243;50.726;7.080;2023-04-24T07:49:07;2.85;;;1.90;;
27899;SDS011;15243;50.726;7.080;2023-04-24T07:51:39;2.42;;;2.13;;
27899;SDS011;15243;50.726;7.080;2023-04-24T07:54:08;4.45;;;2.20;;
27899;SDS011;15243;50.726;7.080;2023-04-24T07:56:35;3.60;;;2.00;;
27899;SDS011;15243;50.726;7.080;2023-04-24T07:59:05;2.33;;;2.05;;
27899;SDS011;15243;50.726;7.080;2023-04-24T08:01:32;3.03;;;1.60;;
27899;SDS011;15243;50.726;7.080;2023-04-24T08:03:59;2.80;;;1.58;;
27899;SDS011;15243;50.726;7.080;2023-04-24T08:06:27;4.38;;;1.45;;
27899;SDS011;15243;50.726;7.080;2023-04-24T08:08:57;4.15;;;1.60;;
27899;SDS011;15243;50.726;7.080;2023-04-24T08:11:24;2.92;;;1.83;;
27899;SDS011;15243;50.726;7.080;2023-04-24T08:13:52;1.67;;;1.58;;
27899;SDS011;15243;50.726;7.080;2023-04-24T08:16:19;1.73;;;1.40;;
27899;SDS011;15243;50.726;7.080;2023-04-24T08:18:46;1.42;;;1.23;;
27899;SDS011;15243;50.726;7.080;2023-04-24T08:21:13;3.42;;;1.60;;
27899;SDS011;15243;50.726;7.080;2023-04-24T08:23:43;2.10;;;1.73;;
27899;SDS011;15243;50.726;7.080;2023-04-24T08:26:11;1.88;;;1.52;;
27899;SDS011;15243;50.726;7.080;2023-04-24T08:28:39;2.05;;;1.75;;
27899;SDS011;15243;50.726;7.080;2023-04-24T08:31:07;1.98;;;1.80;;
27899;SDS011;15243;50.726;7.080;2023-04-24T08:33:34;2.60;;;2.35;;
27899;SDS011;15243;50.726;7.080;2023-04-24T08:36:05;2.70;;;2.13;;
27899;SDS011;15243;50.726;7.080;2023-04-24T08:38:32;2.75;;;2.25;;
27899;SDS011;15243;50.726;7.080;2023-04-24T08:41:00;2.45;;;1.98;;
27899;SDS011;15243;50.726;7.080;2023-04-24T08:43:28;5.03;;;1.80;;
27899;SDS011;15243;50.726;7.080;2023-04-24T08:45:55;8.70;;;7.93;;
27899;SDS011;15243;50.726;7.080;2023-04-24T08:48:23;3.17;;;1.98;;
27899;SDS011;15243;50.726;7.080;2023-04-24T08:50:57;3.00;;;2.17;;
27899;SDS011;15243;50.726;7.080;2023-04-24T08:53:25;7.47;;;2.88;;
27899;SDS011;15243;50.726;7.080;2023-04-24T08:55:54;4.82;;;2.40;;
27899;SDS011;15243;50.726;7.080;2023-04-24T08:58:25;4.15;;;2.95;;
27899;SDS011;15243;50.726;7.080;2023-04-24T09:00:56;4.95;;;3.35;;
27899;SDS011;15243;50.726;7.080;2023-04-24T09:03:24;6.63;;;3.67;;
27899;SDS011;15243;50.726;7.080;2023-04-24T09:05:54;5.40;;;3.90;;
27899;SDS011;15243;50.726;7.080;2023-04-24T09:08:23;8.57;;;4.28;;
27899;SDS011;15243;50.726;7.080;2023-04-24T09:10:51;8.27;;;4.70;;
27899;SDS011;15243;50.726;7.080;2023-04-24T09:13:19;8.70;;;4.22;;
27899;SDS011;15243;50.726;7.080;2023-04-24T09:15:46;10.77;;;5.15;;
27899;SDS011;15243;50.726;7.080;2023-04-24T09:18:13;6.35;;;5.05;;
27899;SDS011;15243;50.726;7.080;2023-04-24T09:23:33;8.48;;;5.70;;
27899;SDS011;15243;50.726;7.080;2023-04-24T09:26:01;6.75;;;4.80;;
27899;SDS011;15243;50.726;7.080;2023-04-24T09:28:38;9.82;;;6.05;;
27899;SDS011;15243;50.726;7.080;2023-04-24T09:33:37;11.60;;;7.13;;
27899;SDS011;15243;50.726;7.080;2023-04-24T09:36:05;11.35;;;6.00;;
27899;SDS011;15243;50.726;7.080;2023-04-24T09:38:33;11.60;;;5.70;;
27899;SDS011;15243;50.726;7.080;2023-04-24T09:41:08;10.07;;;5.93;;
27899;SDS011;15243;50.726;7.080;2023-04-24T09:43:39;7.30;;;4.97;;
27899;SDS011;15243;50.726;7.080;2023-04-24T09:46:06;8.20;;;5.07;;
27899;SDS011;15243;50.726;7.080;2023-04-24T09:48:36;6.97;;;5.05;;
27899;SDS011;15243;50.726;7.080;2023-04-24T09:51:05;6.85;;;4.75;;
27899;SDS011;15243;50.726;7.080;2023-04-24T09:53:37;8.77;;;4.38;;
27899;SDS011;15243;50.726;7.080;2023-04-24T09:56:09;5.70;;;4.07;;
27899;SDS011;15243;50.726;7.080;2023-04-24T09:58:36;8.18;;;3.78;;
27899;SDS011;15243;50.726;7.080;2023-04-24T10:01:06;9.02;;;4.47;;
27899;SDS011;15243;50.726;7.080;2023-04-24T10:03:33;6.82;;;4.97;;
27899;SDS011;15243;50.726;7.080;2023-04-24T10:06:01;6.70;;;4.30;;
27899;SDS011;15243;50.726;7.080;2023-04-24T10:08:35;7.13;;;3.97;;
27899;SDS011;15243;50.726;7.080;2023-04-24T10:11:04;7.05;;;4.55;;
27899;SDS011;15243;50.726;7.080;2023-04-24T10:13:32;11.18;;;5.32;;
27899;SDS011;15243;50.726;7.080;2023-04-24T10:16:00;10.70;;;5.05;;
27899;SDS011;15243;50.726;7.080;2023-04-24T10:18:29;7.80;;;4.70;;
27899;SDS011;15243;50.726;7.080;2023-04-24T10:20:57;8.40;;;5.10;;
27899;SDS011;15243;50.726;7.080;2023-04-24T10:23:26;10.45;;;5.60;;
27899;SDS011;15243;50.726;7.080;2023-04-24T10:25:54;7.18;;;4.18;;
27899;SDS011;15243;50.726;7.080;2023-04-24T10:28:21;8.43;;;5.18;;
27899;SDS011;15243;50.726;7.080;2023-04-24T10:30:50;9.65;;;4.70;;
27899;SDS011;15243;50.726;7.080;2023-04-24T10:33:21;8.63;;;4.45;;
27899;SDS011;15243;50.726;7.080;2023-04-24T10:35:49;7.63;;;4.03;;
27899;SDS011;15243;50.726;7.080;2023-04-24T10:38:18;7.97;;;4.25;;
27899;SDS011;15243;50.726;7.080;2023-04-24T10:40:51;6.95;;;4.03;;
27899;SDS011;15243;50.726;7.080;2023-04-24T10:43:18;8.48;;;4.50;;
27899;SDS011;15243;50.726;7.080;2023-04-24T10:46:01;11.98;;;4.50;;
27899;SDS011;15243;50.726;7.080;2023-04-24T10:48:30;12.13;;;4.78;;
27899;SDS011;15243;50.726;7.080;2023-04-24T10:50:58;10.23;;;4.63;;
27899;SDS011;15243;50.726;7.080;2023-04-24T10:53:29;9.85;;;5.32;;
27899;SDS011;15243;50.726;7.080;2023-04-24T10:58:24;10.45;;;5.53;;
27899;SDS011;15243;50.726;7.080;2023-04-24T11:01:04;14.15;;;6.13;;
27899;SDS011;15243;50.726;7.080;2023-04-24T11:03:32;12.48;;;6.60;;
27899;SDS011;15243;50.726;7.080;2023-04-24T11:08:39;13.05;;;5.95;;
27899;SDS011;15243;50.726;7.080;2023-04-24T11:11:14;12.98;;;7.13;;
27899;SDS011;15243;50.726;7.080;2023-04-24T11:18:51;15.13;;;7.38;;
27899;SDS011;15243;50.726;7.080;2023-04-24T11:21:20;18.27;;;6.97;;
27899;SDS011;15243;50.726;7.080;2023-04-24T11:23:48;16.48;;;7.50;;
27899;SDS011;15243;50.726;7.080;2023-04-24T11:26:17;14.13;;;6.93;;
27899;SDS011;15243;50.726;7.080;2023-04-24T11:28:47;17.17;;;7.85;;
27899;SDS011;15243;50.726;7.080;2023-04-24T11:31:37;12.77;;;6.38;;
27899;SDS011;15243;50.726;7.080;2023-04-24T11:34:13;12.65;;;7.35;;
27899;SDS011;15243;50.726;7.080;2023-04-24T11:36:44;20.23;;;7.25;;
27899;SDS011;15243;50.726;7.080;2023-04-24T11:39:12;11.73;;;6.05;;
27899;SDS011;15243;50.726;7.080;2023-04-24T11:41:39;11.38;;;6.00;;
27899;SDS011;15243;50.726;7.080;2023-04-24T11:44:08;11.98;;;5.68;;
27899;SDS011;15243;50.726;7.080;2023-04-24T11:46:36;13.88;;;5.50;;
27899;SDS011;15243;50.726;7.080;2023-04-24T11:49:06;12.65;;;4.90;;
27899;SDS011;15243;50.726;7.080;2023-04-24T11:51:33;10.30;;;4.50;;
27899;SDS011;15243;50.726;7.080;2023-04-24T11:54:16;16.25;;;5.97;;
27899;SDS011;15243;50.726;7.080;2023-04-24T11:56:47;19.58;;;5.20;;
27899;SDS011;15243;50.726;7.080;2023-04-24T11:59:14;9.73;;;4.88;;
27899;SDS011;15243;50.726;7.080;2023-04-24T12:01:44;17.02;;;6.40;;
27899;SDS011;15243;50.726;7.080;2023-04-24T12:04:13;15.70;;;5.13;;
27899;SDS011;15243;50.726;7.080;2023-04-24T12:07:02;11.02;;;5.20;;
27899;SDS011;15243;50.726;7.080;2023-04-24T12:09:29;13.43;;;5.70;;
27899;SDS011;15243;50.726;7.080;2023-04-24T12:12:06;11.80;;;5.25;;
27899;SDS011;15243;50.726;7.080;2023-04-24T12:17:22;13.68;;;5.35;;
27899;SDS011;15243;50.726;7.080;2023-04-24T12:20:03;14.45;;;5.60;;
27899;SDS011;15243;50.726;7.080;2023-04-24T12:25:18;9.95;;;5.80;;
27899;SDS011;15243;50.726;7.080;2023-04-24T12:27:46;12.00;;;5.47;;
27899;SDS011;15243;50.726;7.080;2023-04-24T12:30:18;14.30;;;6.10;;
27899;SDS011;15243;50.726;7.080;2023-04-24T12:32:46;9.93;;;6.00;;
27899;SDS011;15243;50.726;7.080;2023-04-24T12:35:21;14.55;;;6.53;;
27899;SDS011;15243;50.726;7.080;2023-04-24T12:37:51;13.20;;;6.05;;
27899;SDS011;15243;50.726;7.080;2023-04-24T12:40:18;13.45;;;6.35;;
27899;SDS011;15243;50.726;7.080;2023-04-24T12:42:47;16.83;;;6.30;;
27899;SDS011;15243;50.726;7.080;2023-04-24T12:45:18;10.93;;;6.45;;
27899;SDS011;15243;50.726;7.080;2023-04-24T12:47:46;58.53;;;53.53;;
27899;SDS011;15243;50.726;7.080;2023-04-24T12:50:15;11.88;;;6.13;;
27899;SDS011;15243;50.726;7.080;2023-04-24T12:52:42;13.32;;;6.63;;
27899;SDS011;15243;50.726;7.080;2023-04-24T12:55:09;12.25;;;6.18;;
27899;SDS011;15243;50.726;7.080;2023-04-24T12:57:39;13.25;;;5.97;;
27899;SDS011;15243;50.726;7.080;2023-04-24T13:00:07;8.85;;;5.30;;
27899;SDS011;15243;50.726;7.080;2023-04-24T13:02:35;10.05;;;5.47;;
27899;SDS011;15243;50.726;7.080;2023-04-24T13:05:02;15.00;;;5.47;;
27899;SDS011;15243;50.726;7.080;2023-04-24T13:07:30;16.35;;;5.50;;
27899;SDS011;15243;50.726;7.080;2023-04-24T13:09:56;14.70;;;6.13;;
27899;SDS011;15243;50.726;7.080;2023-04-24T13:12:24;16.45;;;6.47;;
27899;SDS011;15243;50.726;7.080;2023-04-24T13:14:52;9.73;;;5.10;;
27899;SDS011;15243;50.726;7.080;2023-04-24T13:17:21;11.43;;;4.47;;
27899;SDS011;15243;50.726;7.080;2023-04-24T13:19:49;7.78;;;3.75;;
27899;SDS011;15243;50.726;7.080;2023-04-24T13:22:25;9.20;;;3.70;;
27899;SDS011;15243;50.726;7.080;2023-04-24T13:24:54;10.98;;;4.75;;
27899;SDS011;15243;50.726;7.080;2023-04-24T13:27:22;9.75;;;4.35;;
27899;SDS011;15243;50.726;7.080;2023-04-24T13:29:50;9.18;;;4.60;;
27899;SDS011;15243;50.726;7.080;2023-04-24T13:32:17;8.27;;;4.15;;
27899;SDS011;15243;50.726;7.080;2023-04-24T13:34:44;9.48;;;3.83;;
27899;SDS011;15243;50.726;7.080;2023-04-24T13:37:11;11.85;;;4.40;;
27899;SDS011;15243;50.726;7.080;2023-04-24T13:39:38;12.68;;;4.35;;
27899;SDS011;15243;50.726;7.080;2023-04-24T13:42:08;10.68;;;4.65;;
27899;SDS011;15243;50.726;7.080;2023-04-24T13:44:35;10.15;;;4.28;;
27899;SDS011;15243;50.726;7.080;2023-04-24T13:47:02;5.88;;;3.72;;
27899;SDS011;15243;50.726;7.080;2023-04-24T13:49:29;7.95;;;4.38;;
27899;SDS011;15243;50.726;7.080;2023-04-24T13:51:56;11.45;;;4.82;;
27899;SDS011;15243;50.726;7.080;2023-04-24T13:54:23;7.18;;;3.58;;
27899;SDS011;15243;50.726;7.080;2023-04-24T13:56:52;9.23;;;3.95;;
27899;SDS011;15243;50.726;7.080;2023-04-24T13:59:20;9.60;;;4.13;;
27899;SDS011;15243;50.726;7.080;2023-04-24T14:01:49;8.70;;;4.10;;
27899;SDS011;15243;50.726;7.080;2023-04-24T14:04:16;9.88;;;4.40;;
27899;SDS011;15243;50.726;7.080;2023-04-24T14:06:44;10.55;;;4.85;;
27899;SDS011;15243;50.726;7.080;2023-04-24T14:09:11;9.57;;;4.45;;
27899;SDS011;15243;50.726;7.080;2023-04-24T14:11:40;9.73;;;5.35;;
27899;SDS011;15243;50.726;7.080;2023-04-24T14:14:07;12.40;;;4.97;;
27899;SDS011;15243;50.726;7.080;2023-04-24T14:16:34;14.48;;;6.93;;
27899;SDS011;15243;50.726;7.080;2023-04-24T14:19:01;13.20;;;6.03;;
27899;SDS011;15243;50.726;7.080;2023-04-24T14:21:28;16.75;;;6.57;;
27899;SDS011;15243;50.726;7.080;2023-04-24T14:23:55;15.30;;;5.85;;
27899;SDS011;15243;50.726;7.080;2023-04-24T14:26:22;14.13;;;6.25;;
27899;SDS011;15243;50.726;7.080;2023-04-24T14:28:49;10.50;;;5.88;;
27899;SDS011;15243;50.726;7.080;2023-04-24T14:31:19;14.63;;;6.45;;
27899;SDS011;15243;50.726;7.080;2023-04-24T14:33:46;13.15;;;5.70;;
27899;SDS011;15243;50.726;7.080;2023-04-24T14:36:13;14.50;;;5.72;;
27899;SDS011;15243;50.726;7.080;2023-04-24T14:38:41;11.77;;;5.63;;
27899;SDS011;15243;50.726;7.080;2023-04-24T14:41:08;10.52;;;5.40;;
27899;SDS011;15243;50.726;7.080;2023-04-24T14:43:39;10.32;;;5.07;;
27899;SDS011;15243;50.726;7.080;2023-04-24T14:46:06;8.77;;;4.72;;
27899;SDS011;15243;50.726;7.080;2023-04-24T14:48:34;11.90;;;4.60;;
27899;SDS011;15243;50.726;7.080;2023-04-24T14:51:01;8.23;;;4.35;;
27899;SDS011;15243;50.726;7.080;2023-04-24T14:53:27;9.18;;;4.55;;
27899;SDS011;15243;50.726;7.080;2023-04-24T14:55:55;9.25;;;4.50;;
27899;SDS011;15243;50.726;7.080;2023-04-24T14:58:22;11.00;;;4.50;;
27899;SDS011;15243;50.726;7.080;2023-04-24T15:00:52;9.93;;;4.80;;
27899;SDS011;15243;50.726;7.080;2023-04-24T15:03:20;11.77;;;4.75;;
27899;SDS011;15243;50.726;7.080;2023-04-24T15:05:48;12.20;;;5.30;;
27899;SDS011;15243;50.726;7.080;2023-04-24T15:08:15;8.55;;;4.90;;
27899;SDS011;15243;50.726;7.080;2023-04-24T15:10:43;10.40;;;4.82;;